Karlsruhe, North Dakota
Current Conditions -  °F | °C
As of 6:54 PM on Saturday 22 Nov 2014 (Local Time) from KMOT Reporting Station
Few Clouds Few Clouds  
Wind Chill: 37°   Ceiling: Unl
Heat Index: 43°   Visibility: 10mi
Dew Point: 31°   Wind: 12mph
Humidity: 62%   Direction: 220°SW
Pressure: 29.24"   Gusts: NA
Location:  48.09°N, 100.62°W
Report Text: KMOT 230054Z 22010KT 10SM FEW120 06/M01 A2924 RMK AO2 SLP920 T00611006
Loading
Personal Weather Stations






























Interactive Weather Map New forecast layout! Learn more

10-Day Weather Forecast

Advertisements
Track Severe Weather on mobile